EXS31JK EGBB-LGPZ
Flight info
| Callsign | EXS31JK |
|---|---|
| Flight time | 3h 3m |
| Altitude | 37000 |
| Route | COWLY Q70 BIG UL9 KONAN DCT KOK M150 KOMOB DCT EDISA DCT PICWI DCT UTABA DCT BEMKI DCT ELMEM DCT DIRAB DCT VESAL DCT VAKSU DCT RODON DCT LIMJA DCT PITAS N732 KRK M127 MALED |
| Aircraft | A21N/M-SDE2E3FGHIJ1RWXY/LB1 |
Departure
| Time | 2026-05-07 08:22 |
|---|---|
| Airport | Birmingham Airport (EGBB) |
Arrival
| Time | 2026-05-07 11:26 |
|---|---|
| Airport | Aktion National Airport (LGPZ) |
| Time | Latitude | Longitude | Altitude | Speed | Heading |
|---|---|---|---|---|---|
| 2026-05-07 07:39 | 52.44970 | -1.73543 | 329 ft | 0 kts | 56° |
| 2026-05-07 08:10 | 52.44966 | -1.73554 | 324 ft | 3 kts | 54° |
| 2026-05-07 08:10 | 52.44953 | -1.73579 | 324 ft | 3 kts | 45° |
| 2026-05-07 08:11 | 52.44938 | -1.73600 | 325 ft | 3 kts | 28° |
| 2026-05-07 08:11 | 52.44921 | -1.73610 | 325 ft | 3 kts | 355° |
| 2026-05-07 08:11 | 52.44909 | -1.73605 | 324 ft | 1 kts | 326° |
| 2026-05-07 08:11 | 52.44926 | -1.73623 | 327 ft | 3 kts | 326° |
| 2026-05-07 08:12 | 52.44942 | -1.73642 | 325 ft | 3 kts | 326° |
| 2026-05-07 08:12 | 52.44959 | -1.73660 | 328 ft | 3 kts | 326° |
| 2026-05-07 08:12 | 52.44973 | -1.73676 | 325 ft | 0 kts | 326° |
| 2026-05-07 08:15 | 52.44980 | -1.73684 | 326 ft | 3 kts | 326° |
| 2026-05-07 08:16 | 52.45002 | -1.73708 | 328 ft | 4 kts | 326° |
| 2026-05-07 08:16 | 52.45033 | -1.73741 | 329 ft | 7 kts | 332° |
| 2026-05-07 08:16 | 52.45088 | -1.73770 | 329 ft | 10 kts | 341° |
| 2026-05-07 08:16 | 52.45153 | -1.73834 | 327 ft | 12 kts | 326° |
| 2026-05-07 08:17 | 52.45225 | -1.73913 | 327 ft | 13 kts | 326° |
| 2026-05-07 08:17 | 52.45301 | -1.74003 | 327 ft | 14 kts | 308° |
| 2026-05-07 08:17 | 52.45345 | -1.74153 | 326 ft | 15 kts | 296° |
| 2026-05-07 08:17 | 52.45395 | -1.74311 | 327 ft | 16 kts | 297° |
| 2026-05-07 08:18 | 52.45447 | -1.74478 | 325 ft | 17 kts | 297° |
| 2026-05-07 08:18 | 52.45523 | -1.74627 | 327 ft | 18 kts | 326° |
| 2026-05-07 08:18 | 52.45627 | -1.74743 | 323 ft | 18 kts | 325° |
| 2026-05-07 08:18 | 52.45734 | -1.74862 | 316 ft | 19 kts | 326° |
| 2026-05-07 08:19 | 52.45844 | -1.74983 | 313 ft | 19 kts | 326° |
| 2026-05-07 08:19 | 52.45955 | -1.75105 | 312 ft | 20 kts | 326° |
| 2026-05-07 08:19 | 52.46070 | -1.75233 | 309 ft | 20 kts | 326° |
| 2026-05-07 08:19 | 52.46189 | -1.75366 | 308 ft | 21 kts | 325° |
| 2026-05-07 08:20 | 52.46311 | -1.75502 | 308 ft | 21 kts | 326° |
| 2026-05-07 08:20 | 52.46436 | -1.75641 | 308 ft | 22 kts | 326° |
| 2026-05-07 08:20 | 52.46564 | -1.75784 | 311 ft | 21 kts | 326° |
| 2026-05-07 08:20 | 52.46631 | -1.75912 | 312 ft | 14 kts | 257° |
| 2026-05-07 08:21 | 52.46585 | -1.76038 | 310 ft | 13 kts | 235° |
| 2026-05-07 08:21 | 52.46524 | -1.76066 | 312 ft | 10 kts | 153° |
| 2026-05-07 08:21 | 52.46515 | -1.76056 | 313 ft | 0 kts | 144° |
| 2026-05-07 08:21 | 52.46495 | -1.76035 | 314 ft | 19 kts | 145° |
| 2026-05-07 08:22 | 52.46184 | -1.75690 | 313 ft | 87 kts | 146° |
| 2026-05-07 08:22 | 52.45522 | -1.74954 | 325 ft | 140 kts | 146° |
| 2026-05-07 08:22 | 52.44621 | -1.73957 | 563 ft | 160 kts | 145° |
| 2026-05-07 08:22 | 52.43703 | -1.72946 | 1176 ft | 160 kts | 146° |
| 2026-05-07 08:23 | 52.42765 | -1.71926 | 1715 ft | 167 kts | 146° |
| 2026-05-07 08:23 | 52.41758 | -1.70812 | 2175 ft | 182 kts | 147° |
| 2026-05-07 08:23 | 52.40566 | -1.69895 | 2689 ft | 197 kts | 163° |
| 2026-05-07 08:23 | 52.39188 | -1.69348 | 3273 ft | 209 kts | 165° |
| 2026-05-07 08:24 | 52.37766 | -1.68676 | 3932 ft | 215 kts | 155° |
| 2026-05-07 08:24 | 52.36405 | -1.67610 | 4650 ft | 219 kts | 151° |
| 2026-05-07 08:24 | 52.35028 | -1.66454 | 5340 ft | 225 kts | 149° |
| 2026-05-07 08:24 | 52.33656 | -1.65062 | 5820 ft | 242 kts | 146° |
| 2026-05-07 08:25 | 52.32201 | -1.63503 | 6181 ft | 263 kts | 146° |
| 2026-05-07 08:25 | 52.30629 | -1.61844 | 6780 ft | 273 kts | 147° |
| 2026-05-07 08:25 | 52.29015 | -1.60165 | 7531 ft | 276 kts | 147° |
| 2026-05-07 08:25 | 52.27383 | -1.58476 | 8344 ft | 279 kts | 148° |
| 2026-05-07 08:26 | 52.23987 | -1.55328 | 10016 ft | 283 kts | 154° |
| 2026-05-07 08:26 | 52.22210 | -1.53924 | 10769 ft | 286 kts | 154° |
| 2026-05-07 08:26 | 52.20409 | -1.52505 | 11482 ft | 289 kts | 155° |
| 2026-05-07 08:27 | 52.18588 | -1.51068 | 12208 ft | 293 kts | 155° |
| 2026-05-07 08:27 | 52.16744 | -1.49612 | 12932 ft | 296 kts | 155° |
| 2026-05-07 08:27 | 52.14880 | -1.48138 | 13666 ft | 300 kts | 155° |
| 2026-05-07 08:27 | 52.12993 | -1.46645 | 14327 ft | 303 kts | 155° |
| 2026-05-07 08:28 | 52.11082 | -1.45136 | 14961 ft | 307 kts | 155° |
| 2026-05-07 08:28 | 52.09174 | -1.43628 | 15604 ft | 310 kts | 156° |
| 2026-05-07 08:28 | 52.07225 | -1.42093 | 16254 ft | 313 kts | 156° |
| 2026-05-07 08:28 | 52.05256 | -1.40545 | 16897 ft | 316 kts | 156° |
| 2026-05-07 08:29 | 52.03264 | -1.38980 | 17554 ft | 319 kts | 155° |
| 2026-05-07 08:29 | 52.01262 | -1.37404 | 18187 ft | 322 kts | 155° |
| 2026-05-07 08:29 | 51.99234 | -1.35811 | 18771 ft | 325 kts | 155° |
| 2026-05-07 08:29 | 51.97185 | -1.34203 | 19325 ft | 327 kts | 155° |
| 2026-05-07 08:30 | 51.95127 | -1.32592 | 19881 ft | 330 kts | 155° |
| 2026-05-07 08:30 | 51.93056 | -1.30971 | 20449 ft | 332 kts | 155° |
| 2026-05-07 08:30 | 51.90970 | -1.29340 | 20998 ft | 334 kts | 155° |
| 2026-05-07 08:30 | 51.88869 | -1.27701 | 21561 ft | 336 kts | 155° |
| 2026-05-07 08:31 | 51.86759 | -1.26057 | 22121 ft | 337 kts | 155° |
| 2026-05-07 08:31 | 51.84634 | -1.24400 | 22650 ft | 340 kts | 155° |
| 2026-05-07 08:31 | 51.82505 | -1.22706 | 23129 ft | 344 kts | 150° |
| 2026-05-07 08:31 | 51.80623 | -1.20259 | 23393 ft | 353 kts | 130° |
| 2026-05-07 08:32 | 51.79210 | -1.16945 | 23601 ft | 364 kts | 121° |
| 2026-05-07 08:32 | 51.77918 | -1.13358 | 23792 ft | 375 kts | 121° |
| 2026-05-07 08:32 | 51.76592 | -1.09674 | 23958 ft | 385 kts | 121° |
| 2026-05-07 08:32 | 51.75208 | -1.05910 | 24144 ft | 395 kts | 121° |
| 2026-05-07 08:33 | 51.73777 | -1.02077 | 24387 ft | 402 kts | 122° |
| 2026-05-07 08:33 | 51.72339 | -0.98262 | 24771 ft | 404 kts | 122° |
| 2026-05-07 08:33 | 51.70869 | -0.94377 | 25151 ft | 407 kts | 122° |
| 2026-05-07 08:33 | 51.69384 | -0.90471 | 25519 ft | 409 kts | 122° |
| 2026-05-07 08:34 | 51.67891 | -0.86548 | 25892 ft | 412 kts | 122° |
| 2026-05-07 08:34 | 51.66388 | -0.82606 | 26278 ft | 413 kts | 121° |
| 2026-05-07 08:34 | 51.64879 | -0.78643 | 26659 ft | 415 kts | 121° |
| 2026-05-07 08:34 | 51.63366 | -0.74675 | 27026 ft | 417 kts | 121° |
| 2026-05-07 08:35 | 51.61842 | -0.70693 | 27380 ft | 419 kts | 121° |
| 2026-05-07 08:35 | 51.60315 | -0.66687 | 27724 ft | 421 kts | 121° |
| 2026-05-07 08:35 | 51.58779 | -0.62664 | 28054 ft | 423 kts | 121° |
| 2026-05-07 08:35 | 51.57236 | -0.58632 | 28399 ft | 425 kts | 121° |
| 2026-05-07 08:36 | 51.55698 | -0.54622 | 28640 ft | 429 kts | 122° |
| 2026-05-07 08:36 | 51.54126 | -0.50532 | 28899 ft | 432 kts | 122° |
| 2026-05-07 08:36 | 51.52540 | -0.46419 | 29192 ft | 434 kts | 122° |
| 2026-05-07 08:36 | 51.50937 | -0.42287 | 29498 ft | 436 kts | 122° |
| 2026-05-07 08:37 | 51.49331 | -0.38144 | 29808 ft | 438 kts | 122° |
| 2026-05-07 08:37 | 51.47714 | -0.33985 | 30113 ft | 440 kts | 122° |
| 2026-05-07 08:37 | 51.46095 | -0.29818 | 30375 ft | 442 kts | 122° |
| 2026-05-07 08:37 | 51.44463 | -0.25630 | 30626 ft | 443 kts | 122° |
| 2026-05-07 08:38 | 51.42822 | -0.21425 | 30872 ft | 445 kts | 122° |
| 2026-05-07 08:38 | 51.41374 | -0.17037 | 31093 ft | 447 kts | 110° |
| 2026-05-07 08:38 | 51.40613 | -0.12214 | 31312 ft | 448 kts | 101° |
| 2026-05-07 08:38 | 51.40067 | -0.07287 | 31542 ft | 450 kts | 100° |
| 2026-05-07 08:39 | 51.39526 | -0.02359 | 31826 ft | 450 kts | 100° |
| 2026-05-07 08:39 | 51.39012 | 0.02072 | 32073 ft | 450 kts | 101° |
| 2026-05-07 08:39 | 51.38420 | 0.06990 | 32296 ft | 451 kts | 101° |
| 2026-05-07 08:39 | 51.37821 | 0.11860 | 32559 ft | 450 kts | 101° |
| 2026-05-07 08:40 | 51.37213 | 0.16783 | 32824 ft | 450 kts | 101° |
| 2026-05-07 08:40 | 51.36812 | 0.20044 | 32986 ft | 450 kts | 101° |
| 2026-05-07 08:40 | 51.36072 | 0.25999 | 33328 ft | 449 kts | 101° |
| 2026-05-07 08:40 | 51.35465 | 0.30897 | 33580 ft | 449 kts | 101° |
| 2026-05-07 08:41 | 51.34857 | 0.35790 | 33830 ft | 448 kts | 101° |
| 2026-05-07 08:41 | 51.34249 | 0.40675 | 34075 ft | 447 kts | 101° |
| 2026-05-07 08:41 | 51.33638 | 0.45554 | 34234 ft | 448 kts | 102° |
| 2026-05-07 08:41 | 51.33019 | 0.50443 | 34324 ft | 450 kts | 102° |
| 2026-05-07 08:42 | 51.31761 | 0.60292 | 34417 ft | 454 kts | 102° |
| 2026-05-07 08:42 | 51.31132 | 0.65237 | 34578 ft | 454 kts | 102° |
| 2026-05-07 08:42 | 51.30502 | 0.70187 | 34749 ft | 454 kts | 102° |
| 2026-05-07 08:43 | 51.29867 | 0.75121 | 34914 ft | 454 kts | 102° |
| 2026-05-07 08:43 | 51.29234 | 0.79999 | 35067 ft | 454 kts | 102° |
| 2026-05-07 08:43 | 51.28587 | 0.84996 | 35232 ft | 454 kts | 102° |
| 2026-05-07 08:43 | 51.27957 | 0.89863 | 35389 ft | 454 kts | 102° |
| 2026-05-07 08:44 | 51.27316 | 0.94799 | 35548 ft | 454 kts | 102° |
| 2026-05-07 08:44 | 51.26669 | 0.99728 | 35659 ft | 454 kts | 102° |
| 2026-05-07 08:44 | 51.26020 | 1.04675 | 35776 ft | 454 kts | 102° |
| 2026-05-07 08:44 | 51.25363 | 1.09629 | 35899 ft | 454 kts | 102° |
| 2026-05-07 08:45 | 51.24712 | 1.14575 | 36018 ft | 454 kts | 102° |
| 2026-05-07 08:45 | 51.24063 | 1.19508 | 36135 ft | 454 kts | 102° |
| 2026-05-07 08:45 | 51.23409 | 1.24445 | 36251 ft | 454 kts | 102° |
| 2026-05-07 08:45 | 51.22747 | 1.29379 | 36366 ft | 454 kts | 103° |
| 2026-05-07 08:46 | 51.22093 | 1.34237 | 36479 ft | 454 kts | 103° |
| 2026-05-07 08:46 | 51.21424 | 1.39166 | 36587 ft | 454 kts | 103° |
| 2026-05-07 08:46 | 51.20759 | 1.44088 | 36695 ft | 454 kts | 103° |
| 2026-05-07 08:46 | 51.20094 | 1.49013 | 36791 ft | 454 kts | 103° |
| 2026-05-07 08:47 | 51.18757 | 1.58864 | 36963 ft | 455 kts | 103° |
| 2026-05-07 08:47 | 51.18088 | 1.63782 | 37077 ft | 454 kts | 103° |
| 2026-05-07 08:47 | 51.17414 | 1.68719 | 37105 ft | 456 kts | 103° |
| 2026-05-07 08:48 | 51.16052 | 1.78584 | 37074 ft | 455 kts | 103° |
| 2026-05-07 08:48 | 51.14687 | 1.88430 | 37076 ft | 455 kts | 103° |
| 2026-05-07 08:49 | 51.13296 | 1.98221 | 37076 ft | 456 kts | 106° |
| 2026-05-07 08:49 | 51.11334 | 2.06007 | 37079 ft | 455 kts | 116° |
| 2026-05-07 08:50 | 51.08573 | 2.15075 | 37076 ft | 455 kts | 116° |
| 2026-05-07 08:50 | 51.05823 | 2.24152 | 37073 ft | 455 kts | 116° |
| 2026-05-07 08:51 | 51.03088 | 2.33237 | 37060 ft | 455 kts | 116° |
| 2026-05-07 08:51 | 51.00342 | 2.42305 | 37060 ft | 457 kts | 116° |
| 2026-05-07 08:52 | 50.97575 | 2.51369 | 37057 ft | 455 kts | 117° |
| 2026-05-07 08:52 | 50.94797 | 2.60423 | 37058 ft | 455 kts | 117° |
| 2026-05-07 08:53 | 50.92038 | 2.69412 | 37061 ft | 457 kts | 116° |
| 2026-05-07 08:53 | 50.89276 | 2.78463 | 37060 ft | 457 kts | 117° |
| 2026-05-07 08:54 | 50.86487 | 2.87499 | 37057 ft | 455 kts | 117° |
| 2026-05-07 08:54 | 50.83684 | 2.96539 | 37054 ft | 455 kts | 117° |
| 2026-05-07 08:55 | 50.80891 | 3.05487 | 37058 ft | 457 kts | 117° |
| 2026-05-07 08:55 | 50.78082 | 3.14478 | 37057 ft | 457 kts | 117° |
| 2026-05-07 08:56 | 50.75272 | 3.23458 | 37058 ft | 455 kts | 117° |
| 2026-05-07 08:56 | 50.72442 | 3.32436 | 37057 ft | 455 kts | 117° |
| 2026-05-07 08:57 | 50.69631 | 3.41427 | 37067 ft | 457 kts | 117° |
| 2026-05-07 08:57 | 50.66804 | 3.50382 | 37066 ft | 458 kts | 117° |
| 2026-05-07 08:58 | 50.63946 | 3.59310 | 37059 ft | 456 kts | 117° |
| 2026-05-07 08:58 | 50.61086 | 3.68248 | 37055 ft | 455 kts | 117° |
| 2026-05-07 08:59 | 50.58219 | 3.77193 | 37053 ft | 457 kts | 117° |
| 2026-05-07 08:59 | 50.55377 | 3.86055 | 37059 ft | 458 kts | 117° |
| 2026-05-07 09:00 | 50.52506 | 3.94965 | 37058 ft | 457 kts | 117° |
| 2026-05-07 09:00 | 50.49618 | 4.03879 | 37058 ft | 456 kts | 118° |
| 2026-05-07 09:01 | 50.46732 | 4.12775 | 37073 ft | 456 kts | 117° |
| 2026-05-07 09:01 | 50.43843 | 4.21661 | 37084 ft | 458 kts | 118° |
| 2026-05-07 09:02 | 50.40948 | 4.30520 | 37082 ft | 458 kts | 118° |
| 2026-05-07 09:02 | 50.38039 | 4.39377 | 37085 ft | 457 kts | 118° |
| 2026-05-07 09:03 | 50.35143 | 4.48169 | 37079 ft | 456 kts | 118° |
| 2026-05-07 09:03 | 50.32215 | 4.57009 | 37057 ft | 456 kts | 118° |
| 2026-05-07 09:04 | 50.29281 | 4.65846 | 37063 ft | 457 kts | 118° |
| 2026-05-07 09:04 | 50.26340 | 4.74663 | 37067 ft | 458 kts | 118° |
| 2026-05-07 09:05 | 50.23400 | 4.83477 | 37061 ft | 458 kts | 118° |
| 2026-05-07 09:05 | 50.20455 | 4.92290 | 37060 ft | 457 kts | 118° |
| 2026-05-07 09:06 | 50.17521 | 5.01021 | 37056 ft | 456 kts | 118° |
| 2026-05-07 09:06 | 50.14555 | 5.09809 | 37058 ft | 457 kts | 118° |
| 2026-05-07 09:07 | 50.11579 | 5.18589 | 37057 ft | 459 kts | 118° |
| 2026-05-07 09:07 | 50.08617 | 5.27357 | 37053 ft | 458 kts | 118° |
| 2026-05-07 09:08 | 50.05636 | 5.36120 | 37046 ft | 458 kts | 118° |
| 2026-05-07 09:08 | 50.02653 | 5.44833 | 37043 ft | 456 kts | 118° |
| 2026-05-07 09:09 | 49.99654 | 5.53578 | 37047 ft | 458 kts | 118° |
| 2026-05-07 09:09 | 49.96647 | 5.62309 | 37044 ft | 460 kts | 119° |
| 2026-05-07 09:10 | 49.93621 | 5.71028 | 37043 ft | 458 kts | 119° |
| 2026-05-07 09:10 | 49.90604 | 5.79741 | 37041 ft | 457 kts | 119° |
| 2026-05-07 09:11 | 49.87591 | 5.88394 | 37034 ft | 457 kts | 119° |
| 2026-05-07 09:11 | 49.84559 | 5.97070 | 37039 ft | 459 kts | 119° |
| 2026-05-07 09:12 | 49.81523 | 6.05740 | 37028 ft | 459 kts | 119° |
| 2026-05-07 09:12 | 49.78474 | 6.14410 | 37023 ft | 457 kts | 119° |
| 2026-05-07 09:13 | 49.75417 | 6.23080 | 37022 ft | 458 kts | 120° |
| 2026-05-07 09:13 | 49.72355 | 6.31736 | 37027 ft | 460 kts | 120° |
| 2026-05-07 09:14 | 49.69278 | 6.40377 | 37025 ft | 460 kts | 120° |
| 2026-05-07 09:14 | 49.66203 | 6.49023 | 37021 ft | 459 kts | 120° |
| 2026-05-07 09:15 | 49.63142 | 6.57599 | 37027 ft | 458 kts | 120° |
| 2026-05-07 09:15 | 49.60048 | 6.66221 | 37020 ft | 458 kts | 120° |
| 2026-05-07 09:16 | 49.56954 | 6.74815 | 37032 ft | 457 kts | 120° |
| 2026-05-07 09:16 | 49.53849 | 6.83410 | 37030 ft | 458 kts | 120° |
| 2026-05-07 09:17 | 49.50736 | 6.91990 | 37034 ft | 458 kts | 120° |
| 2026-05-07 09:17 | 49.47613 | 7.00555 | 37037 ft | 459 kts | 120° |
| 2026-05-07 09:18 | 49.44500 | 7.09123 | 37044 ft | 459 kts | 120° |
| 2026-05-07 09:18 | 49.41390 | 7.17621 | 37038 ft | 459 kts | 121° |
| 2026-05-07 09:19 | 49.38253 | 7.26164 | 37030 ft | 459 kts | 121° |
| 2026-05-07 09:19 | 49.35102 | 7.34711 | 37020 ft | 458 kts | 121° |
| 2026-05-07 09:20 | 49.31935 | 7.43244 | 37021 ft | 459 kts | 121° |
| 2026-05-07 09:20 | 49.28792 | 7.51710 | 37016 ft | 460 kts | 121° |
| 2026-05-07 09:21 | 49.25614 | 7.60205 | 37015 ft | 462 kts | 121° |
| 2026-05-07 09:21 | 49.22437 | 7.68705 | 37015 ft | 460 kts | 121° |
| 2026-05-07 09:22 | 49.19256 | 7.77196 | 37021 ft | 459 kts | 121° |
| 2026-05-07 09:22 | 49.16068 | 7.85668 | 37021 ft | 459 kts | 121° |
| 2026-05-07 09:23 | 49.12881 | 7.94139 | 37022 ft | 460 kts | 121° |
| 2026-05-07 09:23 | 49.09682 | 8.02601 | 37018 ft | 461 kts | 122° |
| 2026-05-07 09:24 | 49.06496 | 8.11000 | 37018 ft | 460 kts | 122° |
| 2026-05-07 09:24 | 49.02982 | 8.19106 | 37014 ft | 455 kts | 136° |
| 2026-05-07 09:25 | 48.98263 | 8.25573 | 37031 ft | 456 kts | 141° |
| 2026-05-07 09:25 | 48.93502 | 8.31964 | 37019 ft | 457 kts | 140° |
| 2026-05-07 09:26 | 48.88784 | 8.38400 | 37024 ft | 457 kts | 140° |
| 2026-05-07 09:26 | 48.84091 | 8.44797 | 37013 ft | 456 kts | 140° |
| 2026-05-07 09:27 | 48.79366 | 8.51219 | 37018 ft | 456 kts | 140° |
| 2026-05-07 09:28 | 48.72249 | 8.60841 | 37018 ft | 457 kts | 140° |
| 2026-05-07 09:28 | 48.67508 | 8.67238 | 37028 ft | 458 kts | 140° |
| 2026-05-07 09:29 | 48.62762 | 8.73634 | 37024 ft | 458 kts | 140° |
| 2026-05-07 09:29 | 48.58019 | 8.80007 | 37023 ft | 457 kts | 140° |
| 2026-05-07 09:30 | 48.53274 | 8.86363 | 37012 ft | 456 kts | 140° |
| 2026-05-07 09:30 | 48.48522 | 8.92732 | 37007 ft | 455 kts | 140° |
| 2026-05-07 09:31 | 48.43799 | 8.99047 | 37009 ft | 456 kts | 140° |
| 2026-05-07 09:31 | 48.39037 | 9.05378 | 37014 ft | 457 kts | 140° |
| 2026-05-07 09:32 | 48.34281 | 9.11681 | 37009 ft | 457 kts | 141° |
| 2026-05-07 09:32 | 48.29523 | 9.17991 | 37018 ft | 455 kts | 141° |
| 2026-05-07 09:33 | 48.24758 | 9.24296 | 37015 ft | 457 kts | 141° |
| 2026-05-07 09:33 | 48.19988 | 9.30575 | 37017 ft | 458 kts | 141° |
| 2026-05-07 09:34 | 48.15209 | 9.36839 | 37019 ft | 456 kts | 141° |
| 2026-05-07 09:34 | 48.10428 | 9.43098 | 37011 ft | 455 kts | 141° |
| 2026-05-07 09:35 | 48.05680 | 9.49294 | 37019 ft | 457 kts | 141° |
| 2026-05-07 09:35 | 48.00897 | 9.55526 | 37016 ft | 458 kts | 141° |
| 2026-05-07 09:36 | 47.96100 | 9.61750 | 37021 ft | 455 kts | 141° |
| 2026-05-07 09:36 | 47.91302 | 9.67936 | 37025 ft | 455 kts | 142° |
| 2026-05-07 09:37 | 47.86499 | 9.74100 | 37023 ft | 455 kts | 141° |
| 2026-05-07 09:37 | 47.81709 | 9.80297 | 37025 ft | 456 kts | 142° |
| 2026-05-07 09:38 | 47.76918 | 9.86468 | 37039 ft | 457 kts | 142° |
| 2026-05-07 09:38 | 47.72138 | 9.92576 | 37038 ft | 455 kts | 142° |
| 2026-05-07 09:39 | 47.68103 | 9.97754 | 37047 ft | 456 kts | 142° |
| 2026-05-07 09:39 | 47.63326 | 10.03876 | 37046 ft | 456 kts | 142° |
| 2026-05-07 09:40 | 47.58521 | 10.10002 | 37036 ft | 457 kts | 142° |
| 2026-05-07 09:40 | 47.53720 | 10.16113 | 37036 ft | 455 kts | 143° |
| 2026-05-07 09:41 | 47.48907 | 10.22191 | 37036 ft | 455 kts | 143° |
| 2026-05-07 09:41 | 47.44100 | 10.28271 | 37036 ft | 455 kts | 143° |
| 2026-05-07 09:42 | 47.39295 | 10.34353 | 37038 ft | 455 kts | 143° |
| 2026-05-07 09:42 | 47.34515 | 10.40365 | 37027 ft | 454 kts | 143° |
| 2026-05-07 09:43 | 47.29695 | 10.46404 | 37020 ft | 453 kts | 143° |
| 2026-05-07 09:43 | 47.24881 | 10.52434 | 37010 ft | 455 kts | 143° |
| 2026-05-07 09:44 | 47.20059 | 10.58460 | 37005 ft | 454 kts | 143° |
| 2026-05-07 09:44 | 47.15227 | 10.64468 | 37000 ft | 455 kts | 143° |
| 2026-05-07 09:45 | 47.10400 | 10.70451 | 36996 ft | 454 kts | 143° |
| 2026-05-07 09:45 | 47.05571 | 10.76436 | 36974 ft | 452 kts | 144° |
| 2026-05-07 09:46 | 47.00766 | 10.82378 | 36979 ft | 452 kts | 144° |
| 2026-05-07 09:46 | 46.95986 | 10.88280 | 36994 ft | 453 kts | 144° |
| 2026-05-07 09:47 | 46.91142 | 10.94248 | 36994 ft | 453 kts | 144° |
| 2026-05-07 09:47 | 46.86317 | 11.00164 | 36995 ft | 452 kts | 144° |
| 2026-05-07 09:48 | 46.81565 | 11.06093 | 36966 ft | 454 kts | 140° |
| 2026-05-07 09:48 | 46.77423 | 11.13174 | 36984 ft | 458 kts | 134° |
| 2026-05-07 09:49 | 46.73398 | 11.20400 | 36987 ft | 460 kts | 134° |
| 2026-05-07 09:49 | 46.69355 | 11.27588 | 36994 ft | 458 kts | 134° |
| 2026-05-07 09:50 | 46.65310 | 11.34733 | 36984 ft | 459 kts | 134° |
| 2026-05-07 09:50 | 46.61253 | 11.41883 | 36970 ft | 459 kts | 135° |
| 2026-05-07 09:51 | 46.57177 | 11.49046 | 36977 ft | 457 kts | 135° |
| 2026-05-07 09:51 | 46.53112 | 11.56181 | 36980 ft | 458 kts | 135° |
| 2026-05-07 09:52 | 46.49054 | 11.63284 | 36980 ft | 460 kts | 135° |
| 2026-05-07 09:52 | 46.44969 | 11.70397 | 36960 ft | 460 kts | 135° |
| 2026-05-07 09:53 | 46.40890 | 11.77492 | 36950 ft | 457 kts | 135° |
| 2026-05-07 09:53 | 46.36813 | 11.84572 | 36948 ft | 457 kts | 135° |
| 2026-05-07 09:54 | 46.32721 | 11.91657 | 36947 ft | 460 kts | 135° |
| 2026-05-07 09:54 | 46.28620 | 11.98737 | 36950 ft | 460 kts | 135° |
| 2026-05-07 09:55 | 46.24512 | 12.05816 | 36909 ft | 460 kts | 135° |
| 2026-05-07 09:55 | 46.20417 | 12.12844 | 36947 ft | 457 kts | 136° |
| 2026-05-07 09:56 | 46.16326 | 12.19863 | 36962 ft | 456 kts | 136° |
| 2026-05-07 09:56 | 46.12222 | 12.26884 | 36975 ft | 458 kts | 136° |
| 2026-05-07 09:57 | 46.08111 | 12.33883 | 36984 ft | 459 kts | 136° |
| 2026-05-07 09:57 | 46.04000 | 12.40887 | 36980 ft | 457 kts | 136° |
| 2026-05-07 09:58 | 45.99902 | 12.47830 | 36991 ft | 456 kts | 136° |
| 2026-05-07 09:58 | 45.95804 | 12.54786 | 36990 ft | 455 kts | 136° |
| 2026-05-07 09:59 | 45.91695 | 12.61720 | 36998 ft | 455 kts | 136° |
| 2026-05-07 09:59 | 45.87581 | 12.68634 | 36983 ft | 455 kts | 136° |
| 2026-05-07 10:00 | 45.83450 | 12.75562 | 36958 ft | 459 kts | 136° |
| 2026-05-07 10:00 | 45.79325 | 12.82469 | 36971 ft | 456 kts | 137° |
| 2026-05-07 10:01 | 45.75199 | 12.89366 | 36985 ft | 455 kts | 137° |
| 2026-05-07 10:01 | 45.71095 | 12.96207 | 36977 ft | 454 kts | 137° |
| 2026-05-07 10:02 | 45.66964 | 13.03084 | 36961 ft | 455 kts | 137° |
| 2026-05-07 10:02 | 45.62822 | 13.09961 | 36982 ft | 457 kts | 137° |
| 2026-05-07 10:03 | 45.58677 | 13.16823 | 36979 ft | 457 kts | 137° |
| 2026-05-07 10:03 | 45.54517 | 13.23676 | 36989 ft | 456 kts | 137° |
| 2026-05-07 10:04 | 45.50381 | 13.30490 | 36992 ft | 455 kts | 137° |
| 2026-05-07 10:04 | 45.46208 | 13.37336 | 36983 ft | 460 kts | 137° |
| 2026-05-07 10:05 | 45.42025 | 13.44191 | 36985 ft | 458 kts | 137° |
| 2026-05-07 10:05 | 45.37841 | 13.51030 | 36996 ft | 457 kts | 137° |
| 2026-05-07 10:06 | 45.33650 | 13.57863 | 37000 ft | 457 kts | 138° |
| 2026-05-07 10:06 | 45.29467 | 13.64676 | 36982 ft | 457 kts | 137° |
| 2026-05-07 10:07 | 45.25278 | 13.71478 | 37010 ft | 457 kts | 137° |
| 2026-05-07 10:07 | 45.21087 | 13.78256 | 37019 ft | 459 kts | 137° |
| 2026-05-07 10:08 | 45.16895 | 13.85036 | 37018 ft | 458 kts | 138° |
| 2026-05-07 10:08 | 45.12711 | 13.91754 | 37025 ft | 457 kts | 138° |
| 2026-05-07 10:09 | 45.08510 | 13.98509 | 37019 ft | 454 kts | 138° |
| 2026-05-07 10:09 | 45.04316 | 14.05230 | 37031 ft | 455 kts | 138° |
| 2026-05-07 10:10 | 45.00129 | 14.11928 | 37031 ft | 455 kts | 138° |
| 2026-05-07 10:10 | 44.95938 | 14.18620 | 37027 ft | 454 kts | 138° |
| 2026-05-07 10:11 | 44.91738 | 14.25313 | 37003 ft | 454 kts | 138° |
| 2026-05-07 10:11 | 44.87550 | 14.31954 | 37026 ft | 454 kts | 138° |
| 2026-05-07 10:12 | 44.83355 | 14.38605 | 37026 ft | 454 kts | 139° |
| 2026-05-07 10:12 | 44.79182 | 14.45198 | 37027 ft | 453 kts | 139° |
| 2026-05-07 10:13 | 44.74980 | 14.51816 | 37030 ft | 452 kts | 139° |
| 2026-05-07 10:13 | 44.70767 | 14.58435 | 37019 ft | 452 kts | 138° |
| 2026-05-07 10:14 | 44.66562 | 14.65039 | 37020 ft | 453 kts | 139° |
| 2026-05-07 10:14 | 44.62355 | 14.71621 | 37029 ft | 454 kts | 139° |
| 2026-05-07 10:15 | 44.58139 | 14.78208 | 37031 ft | 455 kts | 138° |
| 2026-05-07 10:15 | 44.53918 | 14.84779 | 37032 ft | 454 kts | 139° |
| 2026-05-07 10:16 | 44.49723 | 14.91308 | 37041 ft | 453 kts | 139° |
| 2026-05-07 10:16 | 44.45494 | 14.97863 | 37040 ft | 452 kts | 139° |
| 2026-05-07 10:17 | 44.41275 | 15.04401 | 37037 ft | 453 kts | 139° |
| 2026-05-07 10:17 | 44.37042 | 15.10924 | 37027 ft | 453 kts | 139° |
| 2026-05-07 10:18 | 44.32790 | 15.17481 | 37039 ft | 455 kts | 139° |
| 2026-05-07 10:18 | 44.28539 | 15.24020 | 37051 ft | 455 kts | 139° |
| 2026-05-07 10:19 | 44.24268 | 15.30549 | 37053 ft | 455 kts | 139° |
| 2026-05-07 10:19 | 44.20011 | 15.37071 | 37056 ft | 455 kts | 139° |
| 2026-05-07 10:20 | 44.15737 | 15.43580 | 37036 ft | 456 kts | 138° |
| 2026-05-07 10:20 | 44.11449 | 15.50105 | 37041 ft | 457 kts | 138° |
| 2026-05-07 10:21 | 44.07149 | 15.56638 | 37050 ft | 456 kts | 138° |
| 2026-05-07 10:21 | 44.02854 | 15.63154 | 37053 ft | 457 kts | 138° |
| 2026-05-07 10:22 | 43.98554 | 15.69657 | 37031 ft | 457 kts | 138° |
| 2026-05-07 10:22 | 43.94287 | 15.76085 | 37045 ft | 457 kts | 138° |
| 2026-05-07 10:23 | 43.89983 | 15.82557 | 37048 ft | 456 kts | 138° |
| 2026-05-07 10:23 | 43.85682 | 15.89013 | 37039 ft | 455 kts | 138° |
| 2026-05-07 10:24 | 43.81380 | 15.95459 | 37047 ft | 455 kts | 137° |
| 2026-05-07 10:24 | 43.77082 | 16.01881 | 37042 ft | 452 kts | 137° |
| 2026-05-07 10:25 | 43.72801 | 16.08268 | 37057 ft | 453 kts | 137° |
| 2026-05-07 10:25 | 43.68541 | 16.14600 | 37054 ft | 453 kts | 137° |
| 2026-05-07 10:26 | 43.64256 | 16.20956 | 37057 ft | 454 kts | 137° |
| 2026-05-07 10:26 | 43.59968 | 16.27319 | 37060 ft | 453 kts | 137° |
| 2026-05-07 10:27 | 43.55667 | 16.33667 | 37055 ft | 452 kts | 137° |
| 2026-05-07 10:27 | 43.52114 | 16.38932 | 37042 ft | 449 kts | 137° |
| 2026-05-07 10:28 | 43.47830 | 16.45248 | 37056 ft | 450 kts | 137° |
| 2026-05-07 10:28 | 43.43548 | 16.51549 | 37061 ft | 451 kts | 137° |
| 2026-05-07 10:29 | 43.39252 | 16.57816 | 37054 ft | 451 kts | 138° |
| 2026-05-07 10:29 | 43.34973 | 16.64060 | 37079 ft | 450 kts | 137° |
| 2026-05-07 10:30 | 43.28517 | 16.73472 | 37062 ft | 447 kts | 137° |
| 2026-05-07 10:30 | 43.24223 | 16.79703 | 37082 ft | 448 kts | 137° |
| 2026-05-07 10:31 | 43.19936 | 16.85922 | 37081 ft | 449 kts | 137° |
| 2026-05-07 10:31 | 43.15642 | 16.92145 | 37097 ft | 450 kts | 137° |
| 2026-05-07 10:32 | 43.11331 | 16.98370 | 37087 ft | 451 kts | 137° |
| 2026-05-07 10:32 | 43.07044 | 17.04543 | 37087 ft | 452 kts | 137° |
| 2026-05-07 10:33 | 43.02735 | 17.10738 | 37091 ft | 448 kts | 138° |
| 2026-05-07 10:33 | 42.98432 | 17.16936 | 37082 ft | 451 kts | 138° |
| 2026-05-07 10:34 | 42.94105 | 17.23132 | 37101 ft | 451 kts | 138° |
| 2026-05-07 10:34 | 42.89771 | 17.29304 | 37069 ft | 450 kts | 138° |
| 2026-05-07 10:35 | 42.85441 | 17.35480 | 37088 ft | 449 kts | 138° |
| 2026-05-07 10:35 | 42.81129 | 17.41616 | 37080 ft | 449 kts | 138° |
| 2026-05-07 10:36 | 42.76807 | 17.47740 | 37089 ft | 448 kts | 138° |
| 2026-05-07 10:36 | 42.72495 | 17.53852 | 37086 ft | 448 kts | 138° |
| 2026-05-07 10:37 | 42.68176 | 17.59964 | 37192 ft | 445 kts | 138° |
| 2026-05-07 10:37 | 42.66022 | 17.63001 | 37042 ft | 446 kts | 138° |
| 2026-05-07 10:37 | 42.63869 | 17.66031 | 36746 ft | 447 kts | 138° |
| 2026-05-07 10:38 | 42.59528 | 17.72138 | 36795 ft | 451 kts | 138° |
| 2026-05-07 10:38 | 42.56386 | 17.76554 | 37032 ft | 450 kts | 138° |
| 2026-05-07 10:39 | 42.52066 | 17.82619 | 37126 ft | 449 kts | 138° |
| 2026-05-07 10:39 | 42.47720 | 17.88696 | 37102 ft | 448 kts | 138° |
| 2026-05-07 10:40 | 42.43378 | 17.94755 | 37104 ft | 448 kts | 139° |
| 2026-05-07 10:40 | 42.39028 | 18.00816 | 37097 ft | 449 kts | 138° |
| 2026-05-07 10:41 | 42.34667 | 18.06894 | 37107 ft | 450 kts | 138° |
| 2026-05-07 10:41 | 42.30291 | 18.12954 | 37109 ft | 450 kts | 139° |
| 2026-05-07 10:42 | 42.25915 | 18.19014 | 37106 ft | 450 kts | 139° |
| 2026-05-07 10:42 | 42.21547 | 18.25057 | 37108 ft | 450 kts | 138° |
| 2026-05-07 10:43 | 42.17208 | 18.31058 | 37104 ft | 450 kts | 139° |
| 2026-05-07 10:43 | 42.12820 | 18.37100 | 37087 ft | 452 kts | 139° |
| 2026-05-07 10:44 | 42.08399 | 18.43167 | 37101 ft | 452 kts | 139° |
| 2026-05-07 10:44 | 42.03985 | 18.49233 | 37103 ft | 456 kts | 139° |
| 2026-05-07 10:45 | 41.99312 | 18.54977 | 37109 ft | 451 kts | 146° |
| 2026-05-07 10:45 | 41.94368 | 18.60097 | 37115 ft | 450 kts | 147° |
| 2026-05-07 10:46 | 41.89392 | 18.65244 | 37112 ft | 451 kts | 147° |
| 2026-05-07 10:46 | 41.84368 | 18.70453 | 37108 ft | 457 kts | 147° |
| 2026-05-07 10:47 | 41.79373 | 18.75606 | 37118 ft | 456 kts | 147° |
| 2026-05-07 10:47 | 41.74367 | 18.80744 | 37109 ft | 450 kts | 147° |
| 2026-05-07 10:48 | 41.69393 | 18.85874 | 37123 ft | 450 kts | 147° |
| 2026-05-07 10:48 | 41.64445 | 18.90955 | 37091 ft | 445 kts | 147° |
| 2026-05-07 10:49 | 41.59517 | 18.96006 | 37107 ft | 450 kts | 147° |
| 2026-05-07 10:49 | 41.54510 | 19.01131 | 37118 ft | 454 kts | 147° |
| 2026-05-07 10:50 | 41.49520 | 19.06229 | 37113 ft | 455 kts | 147° |
| 2026-05-07 10:50 | 41.44294 | 19.10880 | 37108 ft | 447 kts | 159° |
| 2026-05-07 10:51 | 41.38597 | 19.14096 | 37083 ft | 442 kts | 163° |
| 2026-05-07 10:51 | 41.32939 | 19.17183 | 37096 ft | 440 kts | 162° |
| 2026-05-07 10:52 | 41.27236 | 19.20357 | 37107 ft | 448 kts | 162° |
| 2026-05-07 10:52 | 41.21532 | 19.23542 | 37097 ft | 447 kts | 162° |
| 2026-05-07 10:53 | 41.15788 | 19.26715 | 37097 ft | 447 kts | 162° |
| 2026-05-07 10:53 | 41.10047 | 19.29883 | 37097 ft | 447 kts | 162° |
| 2026-05-07 10:54 | 41.04299 | 19.33018 | 37094 ft | 445 kts | 163° |
| 2026-05-07 10:54 | 41.01449 | 19.34577 | 36807 ft | 442 kts | 162° |
| 2026-05-07 10:54 | 40.98602 | 19.36138 | 36521 ft | 444 kts | 162° |
| 2026-05-07 10:55 | 40.95753 | 19.37703 | 36265 ft | 443 kts | 162° |
| 2026-05-07 10:55 | 40.92913 | 19.39263 | 35988 ft | 441 kts | 163° |
| 2026-05-07 10:55 | 40.90089 | 19.40810 | 35737 ft | 438 kts | 163° |
| 2026-05-07 10:55 | 40.87287 | 19.42347 | 35485 ft | 435 kts | 163° |
| 2026-05-07 10:56 | 40.84496 | 19.43871 | 35236 ft | 432 kts | 163° |
| 2026-05-07 10:56 | 40.81735 | 19.45380 | 34914 ft | 427 kts | 163° |
| 2026-05-07 10:56 | 40.79031 | 19.46851 | 34491 ft | 423 kts | 163° |
| 2026-05-07 10:56 | 40.76315 | 19.48327 | 34042 ft | 420 kts | 163° |
| 2026-05-07 10:57 | 40.73619 | 19.49792 | 33543 ft | 416 kts | 163° |
| 2026-05-07 10:57 | 40.70954 | 19.51245 | 33061 ft | 412 kts | 162° |
| 2026-05-07 10:57 | 40.68317 | 19.52680 | 32618 ft | 408 kts | 162° |
| 2026-05-07 10:57 | 40.65706 | 19.54094 | 32185 ft | 404 kts | 162° |
| 2026-05-07 10:58 | 40.63115 | 19.55496 | 31745 ft | 400 kts | 162° |
| 2026-05-07 10:58 | 40.60543 | 19.56886 | 31289 ft | 397 kts | 162° |
| 2026-05-07 10:58 | 40.57999 | 19.58264 | 30873 ft | 394 kts | 162° |
| 2026-05-07 10:58 | 40.55478 | 19.59632 | 30465 ft | 390 kts | 162° |
| 2026-05-07 10:59 | 40.52978 | 19.60987 | 30027 ft | 387 kts | 162° |
| 2026-05-07 10:59 | 40.50523 | 19.62314 | 29538 ft | 385 kts | 162° |
| 2026-05-07 10:59 | 40.48050 | 19.63651 | 29080 ft | 382 kts | 162° |
| 2026-05-07 10:59 | 40.45599 | 19.64974 | 28646 ft | 379 kts | 162° |
| 2026-05-07 11:00 | 40.43174 | 19.66283 | 28227 ft | 375 kts | 162° |
| 2026-05-07 11:00 | 40.40771 | 19.67580 | 27826 ft | 372 kts | 162° |
| 2026-05-07 11:00 | 40.38386 | 19.68864 | 27434 ft | 368 kts | 162° |
| 2026-05-07 11:00 | 40.36028 | 19.70131 | 27033 ft | 365 kts | 162° |
| 2026-05-07 11:01 | 40.33686 | 19.71392 | 26614 ft | 363 kts | 162° |
| 2026-05-07 11:01 | 40.31356 | 19.72644 | 26202 ft | 360 kts | 162° |
| 2026-05-07 11:01 | 40.29039 | 19.73888 | 25825 ft | 358 kts | 162° |
| 2026-05-07 11:01 | 40.26745 | 19.75118 | 25446 ft | 355 kts | 162° |
| 2026-05-07 11:02 | 40.24462 | 19.76336 | 25063 ft | 353 kts | 162° |
| 2026-05-07 11:02 | 40.22194 | 19.77545 | 24672 ft | 352 kts | 162° |
| 2026-05-07 11:02 | 40.19934 | 19.78757 | 24279 ft | 350 kts | 162° |
| 2026-05-07 11:02 | 40.17711 | 19.79947 | 23889 ft | 349 kts | 162° |
| 2026-05-07 11:03 | 40.15469 | 19.81145 | 23470 ft | 347 kts | 163° |
| 2026-05-07 11:03 | 40.13240 | 19.82335 | 23040 ft | 345 kts | 163° |
| 2026-05-07 11:03 | 40.11015 | 19.83525 | 22652 ft | 343 kts | 163° |
| 2026-05-07 11:03 | 40.08812 | 19.84700 | 22267 ft | 341 kts | 163° |
| 2026-05-07 11:04 | 40.06623 | 19.85869 | 21888 ft | 338 kts | 163° |
| 2026-05-07 11:04 | 40.04453 | 19.87028 | 21508 ft | 336 kts | 163° |
| 2026-05-07 11:04 | 40.02294 | 19.88173 | 21130 ft | 334 kts | 163° |
| 2026-05-07 11:04 | 40.00151 | 19.89311 | 20778 ft | 332 kts | 164° |
| 2026-05-07 11:05 | 39.98020 | 19.90447 | 20434 ft | 329 kts | 164° |
| 2026-05-07 11:05 | 39.95913 | 19.91570 | 20119 ft | 324 kts | 164° |
| 2026-05-07 11:05 | 39.93846 | 19.92668 | 19781 ft | 318 kts | 164° |
| 2026-05-07 11:05 | 39.91812 | 19.93747 | 19437 ft | 313 kts | 165° |
| 2026-05-07 11:06 | 39.89809 | 19.94805 | 19123 ft | 309 kts | 165° |
| 2026-05-07 11:06 | 39.87828 | 19.95855 | 18801 ft | 304 kts | 165° |
| 2026-05-07 11:06 | 39.85903 | 19.96879 | 18489 ft | 301 kts | 165° |
| 2026-05-07 11:06 | 39.83970 | 19.97900 | 18162 ft | 306 kts | 165° |
| 2026-05-07 11:07 | 39.81966 | 19.98951 | 17852 ft | 312 kts | 165° |
| 2026-05-07 11:07 | 39.79959 | 20.00016 | 17530 ft | 311 kts | 165° |
| 2026-05-07 11:07 | 39.77963 | 20.01075 | 17224 ft | 309 kts | 165° |
| 2026-05-07 11:07 | 39.75981 | 20.02115 | 16932 ft | 303 kts | 165° |
| 2026-05-07 11:08 | 39.74043 | 20.03134 | 16625 ft | 297 kts | 165° |
| 2026-05-07 11:08 | 39.72143 | 20.04134 | 16325 ft | 292 kts | 165° |
| 2026-05-07 11:08 | 39.70278 | 20.05120 | 16006 ft | 287 kts | 165° |
| 2026-05-07 11:08 | 39.68442 | 20.06085 | 15699 ft | 282 kts | 165° |
| 2026-05-07 11:09 | 39.66633 | 20.07042 | 15393 ft | 278 kts | 165° |
| 2026-05-07 11:09 | 39.64865 | 20.07977 | 15132 ft | 271 kts | 166° |
| 2026-05-07 11:09 | 39.63137 | 20.08888 | 14858 ft | 266 kts | 166° |
| 2026-05-07 11:09 | 39.61435 | 20.09780 | 14581 ft | 261 kts | 166° |
| 2026-05-07 11:10 | 39.59793 | 20.10641 | 14317 ft | 255 kts | 166° |
| 2026-05-07 11:10 | 39.58167 | 20.11492 | 14057 ft | 249 kts | 166° |
| 2026-05-07 11:10 | 39.56580 | 20.12326 | 13770 ft | 244 kts | 166° |
| 2026-05-07 11:10 | 39.54870 | 20.13207 | 13513 ft | 280 kts | 165° |
| 2026-05-07 11:11 | 39.53057 | 20.14156 | 13224 ft | 284 kts | 165° |
| 2026-05-07 11:11 | 39.51237 | 20.15110 | 12950 ft | 285 kts | 164° |
| 2026-05-07 11:11 | 39.49394 | 20.16073 | 12677 ft | 286 kts | 164° |
| 2026-05-07 11:11 | 39.47553 | 20.17044 | 12380 ft | 286 kts | 164° |
| 2026-05-07 11:12 | 39.45712 | 20.18010 | 12089 ft | 284 kts | 164° |
| 2026-05-07 11:12 | 39.43882 | 20.18962 | 11783 ft | 283 kts | 163° |
| 2026-05-07 11:12 | 39.42061 | 20.19915 | 11474 ft | 282 kts | 163° |
| 2026-05-07 11:12 | 39.40246 | 20.20862 | 11189 ft | 280 kts | 163° |
| 2026-05-07 11:13 | 39.38454 | 20.21798 | 10880 ft | 277 kts | 162° |
| 2026-05-07 11:13 | 39.36671 | 20.22728 | 10594 ft | 276 kts | 162° |
| 2026-05-07 11:13 | 39.34903 | 20.23650 | 10373 ft | 272 kts | 162° |
| 2026-05-07 11:13 | 39.33165 | 20.24552 | 10190 ft | 266 kts | 162° |
| 2026-05-07 11:14 | 39.31459 | 20.25441 | 9980 ft | 263 kts | 161° |
| 2026-05-07 11:14 | 39.29772 | 20.26324 | 9696 ft | 261 kts | 161° |
| 2026-05-07 11:14 | 39.28112 | 20.27184 | 9415 ft | 259 kts | 161° |
| 2026-05-07 11:14 | 39.26445 | 20.28052 | 9132 ft | 258 kts | 161° |
| 2026-05-07 11:15 | 39.24780 | 20.28921 | 8864 ft | 257 kts | 161° |
| 2026-05-07 11:15 | 39.23131 | 20.29777 | 8589 ft | 255 kts | 161° |
| 2026-05-07 11:15 | 39.22066 | 20.30412 | 8400 ft | 256 kts | 153° |
| 2026-05-07 11:15 | 39.20616 | 20.31742 | 8130 ft | 256 kts | 144° |
| 2026-05-07 11:16 | 39.19237 | 20.33185 | 7858 ft | 255 kts | 144° |
| 2026-05-07 11:16 | 39.17861 | 20.34626 | 7606 ft | 254 kts | 144° |
| 2026-05-07 11:16 | 39.16485 | 20.36052 | 7345 ft | 253 kts | 144° |
| 2026-05-07 11:16 | 39.15114 | 20.37467 | 7058 ft | 252 kts | 144° |
| 2026-05-07 11:17 | 39.13750 | 20.38879 | 6767 ft | 251 kts | 143° |
| 2026-05-07 11:17 | 39.12393 | 20.40283 | 6475 ft | 250 kts | 143° |
| 2026-05-07 11:17 | 39.11034 | 20.41674 | 6175 ft | 248 kts | 143° |
| 2026-05-07 11:17 | 39.09684 | 20.43051 | 5891 ft | 247 kts | 143° |
| 2026-05-07 11:18 | 39.08342 | 20.44423 | 5616 ft | 246 kts | 143° |
| 2026-05-07 11:18 | 39.06999 | 20.45797 | 5351 ft | 245 kts | 142° |
| 2026-05-07 11:18 | 39.05674 | 20.47153 | 5087 ft | 243 kts | 142° |
| 2026-05-07 11:18 | 39.04353 | 20.48505 | 4807 ft | 241 kts | 142° |
| 2026-05-07 11:19 | 39.03044 | 20.49844 | 4523 ft | 240 kts | 142° |
| 2026-05-07 11:19 | 39.01743 | 20.51144 | 4242 ft | 239 kts | 146° |
| 2026-05-07 11:19 | 39.00216 | 20.51924 | 3959 ft | 239 kts | 174° |
| 2026-05-07 11:19 | 38.98567 | 20.51668 | 3757 ft | 240 kts | 195° |
| 2026-05-07 11:20 | 38.96980 | 20.51060 | 3551 ft | 234 kts | 193° |
| 2026-05-07 11:20 | 38.95412 | 20.50613 | 3300 ft | 229 kts | 188° |
| 2026-05-07 11:20 | 38.93832 | 20.50360 | 3027 ft | 228 kts | 182° |
| 2026-05-07 11:20 | 38.92248 | 20.50290 | 2964 ft | 228 kts | 178° |
| 2026-05-07 11:21 | 38.90671 | 20.50384 | 2974 ft | 227 kts | 173° |
| 2026-05-07 11:21 | 38.89107 | 20.50642 | 2992 ft | 227 kts | 169° |
| 2026-05-07 11:21 | 38.87568 | 20.51050 | 2920 ft | 225 kts | 163° |
| 2026-05-07 11:21 | 38.86297 | 20.52062 | 2641 ft | 218 kts | 130° |
| 2026-05-07 11:22 | 38.85643 | 20.53774 | 2324 ft | 215 kts | 100° |
| 2026-05-07 11:22 | 38.85744 | 20.55639 | 2104 ft | 208 kts | 72° |
| 2026-05-07 11:22 | 38.86309 | 20.57334 | 2072 ft | 207 kts | 66° |
| 2026-05-07 11:22 | 38.86886 | 20.58932 | 2110 ft | 191 kts | 68° |
| 2026-05-07 11:23 | 38.87418 | 20.60486 | 2132 ft | 189 kts | 69° |
| 2026-05-07 11:23 | 38.87935 | 20.62046 | 2122 ft | 189 kts | 69° |
| 2026-05-07 11:23 | 38.88429 | 20.63541 | 2032 ft | 175 kts | 69° |
| 2026-05-07 11:23 | 38.88896 | 20.64943 | 1777 ft | 164 kts | 70° |
| 2026-05-07 11:24 | 38.89306 | 20.66194 | 1508 ft | 142 kts | 69° |
| 2026-05-07 11:24 | 38.89700 | 20.67338 | 1308 ft | 140 kts | 67° |
| 2026-05-07 11:24 | 38.90078 | 20.68482 | 1132 ft | 138 kts | 69° |
| 2026-05-07 11:24 | 38.90442 | 20.69610 | 941 ft | 136 kts | 68° |
| 2026-05-07 11:25 | 38.90788 | 20.70730 | 749 ft | 134 kts | 70° |
| 2026-05-07 11:25 | 38.91104 | 20.71852 | 552 ft | 134 kts | 69° |
| 2026-05-07 11:25 | 38.91456 | 20.72961 | 349 ft | 135 kts | 69° |
| 2026-05-07 11:25 | 38.91790 | 20.74067 | 184 ft | 134 kts | 69° |
| 2026-05-07 11:26 | 38.92140 | 20.75165 | 36 ft | 132 kts | 69° |
| 2026-05-07 11:26 | 38.92457 | 20.76173 | 26 ft | 103 kts | 68° |
| 2026-05-07 11:26 | 38.92649 | 20.76786 | 25 ft | 49 kts | 68° |
| 2026-05-07 11:26 | 38.92751 | 20.77109 | 22 ft | 30 kts | 68° |
| 2026-05-07 11:27 | 38.92816 | 20.77311 | 22 ft | 20 kts | 68° |
| 2026-05-07 11:27 | 38.92861 | 20.77442 | 24 ft | 6 kts | 43° |
| 2026-05-07 11:27 | 38.92899 | 20.77443 | 22 ft | 4 kts | 339° |
| 2026-05-07 11:27 | 38.92925 | 20.77430 | 23 ft | 0 kts | 338° |
| 2026-05-07 11:29 | 38.92947 | 20.77419 | 23 ft | 6 kts | 338° |
| 2026-05-07 11:29 | 38.92985 | 20.77365 | 24 ft | 11 kts | 330° |
| 2026-05-07 11:29 | 38.93037 | 20.77338 | 24 ft | 3 kts | 338° |
| 2026-05-07 11:29 | 38.93050 | 20.77331 | 25 ft | 0 kts | 338° |